sensor_id;sensor_type;location;lat;lon;timestamp;P1;durP1;ratioP1;P2;durP2;ratioP2
11123;SDS011;5616;42.692;23.312;2022-09-24T00:01:28;4.97;;;4.47;;
11123;SDS011;5616;42.692;23.312;2022-09-24T00:03:57;4.90;;;4.40;;
11123;SDS011;5616;42.692;23.312;2022-09-24T00:06:25;5.00;;;4.40;;
11123;SDS011;5616;42.692;23.312;2022-09-24T00:08:54;5.37;;;4.67;;
11123;SDS011;5616;42.692;23.312;2022-09-24T00:11:24;5.60;;;4.60;;
11123;SDS011;5616;42.692;23.312;2022-09-24T00:13:52;5.83;;;4.63;;
11123;SDS011;5616;42.692;23.312;2022-09-24T00:16:20;5.63;;;4.77;;
11123;SDS011;5616;42.692;23.312;2022-09-24T00:18:49;5.33;;;4.73;;
11123;SDS011;5616;42.692;23.312;2022-09-24T00:21:17;5.83;;;4.70;;
11123;SDS011;5616;42.692;23.312;2022-09-24T00:23:47;8.10;;;5.00;;
11123;SDS011;5616;42.692;23.312;2022-09-24T00:26:15;6.60;;;4.83;;
11123;SDS011;5616;42.692;23.312;2022-09-24T00:29:01;4.50;;;4.10;;
11123;SDS011;5616;42.692;23.312;2022-09-24T00:31:29;4.77;;;4.27;;
11123;SDS011;5616;42.692;23.312;2022-09-24T00:33:56;5.43;;;4.60;;
11123;SDS011;5616;42.692;23.312;2022-09-24T00:36:25;5.23;;;3.77;;
11123;SDS011;5616;42.692;23.312;2022-09-24T00:38:52;6.47;;;4.17;;
11123;SDS011;5616;42.692;23.312;2022-09-24T00:41:20;6.17;;;4.50;;
11123;SDS011;5616;42.692;23.312;2022-09-24T00:43:49;6.57;;;4.80;;
11123;SDS011;5616;42.692;23.312;2022-09-24T00:46:18;5.00;;;4.40;;
11123;SDS011;5616;42.692;23.312;2022-09-24T00:48:51;5.23;;;4.13;;
11123;SDS011;5616;42.692;23.312;2022-09-24T00:51:22;5.67;;;4.47;;
11123;SDS011;5616;42.692;23.312;2022-09-24T00:53:53;6.90;;;4.07;;
11123;SDS011;5616;42.692;23.312;2022-09-24T00:56:25;4.83;;;4.00;;
11123;SDS011;5616;42.692;23.312;2022-09-24T00:58:55;5.33;;;4.10;;
11123;SDS011;5616;42.692;23.312;2022-09-24T01:01:26;5.20;;;4.40;;
11123;SDS011;5616;42.692;23.312;2022-09-24T01:03:54;5.93;;;4.73;;
11123;SDS011;5616;42.692;23.312;2022-09-24T01:06:22;5.53;;;4.73;;
11123;SDS011;5616;42.692;23.312;2022-09-24T01:08:51;6.03;;;5.00;;
11123;SDS011;5616;42.692;23.312;2022-09-24T01:11:22;5.37;;;4.60;;
11123;SDS011;5616;42.692;23.312;2022-09-24T01:14:05;5.53;;;4.70;;
11123;SDS011;5616;42.692;23.312;2022-09-24T01:16:52;5.37;;;4.87;;
11123;SDS011;5616;42.692;23.312;2022-09-24T01:19:31;6.03;;;4.90;;
11123;SDS011;5616;42.692;23.312;2022-09-24T01:22:25;6.17;;;5.57;;
11123;SDS011;5616;42.692;23.312;2022-09-24T01:25:06;7.80;;;5.57;;
11123;SDS011;5616;42.692;23.312;2022-09-24T01:27:47;6.90;;;5.33;;
11123;SDS011;5616;42.692;23.312;2022-09-24T01:30:26;5.97;;;5.13;;
11123;SDS011;5616;42.692;23.312;2022-09-24T01:32:59;6.07;;;5.47;;
11123;SDS011;5616;42.692;23.312;2022-09-24T01:35:30;5.77;;;5.17;;
11123;SDS011;5616;42.692;23.312;2022-09-24T01:38:00;10.73;;;5.70;;
11123;SDS011;5616;42.692;23.312;2022-09-24T01:40:29;5.47;;;4.93;;
11123;SDS011;5616;42.692;23.312;2022-09-24T01:42:58;6.03;;;5.17;;
11123;SDS011;5616;42.692;23.312;2022-09-24T01:45:29;8.50;;;5.53;;
11123;SDS011;5616;42.692;23.312;2022-09-24T01:47:58;7.47;;;5.90;;
11123;SDS011;5616;42.692;23.312;2022-09-24T01:50:27;6.30;;;5.60;;
11123;SDS011;5616;42.692;23.312;2022-09-24T01:52:59;6.00;;;5.30;;
11123;SDS011;5616;42.692;23.312;2022-09-24T01:55:32;9.17;;;4.97;;
11123;SDS011;5616;42.692;23.312;2022-09-24T01:58:03;8.27;;;5.40;;
11123;SDS011;5616;42.692;23.312;2022-09-24T02:00:37;6.83;;;5.13;;
11123;SDS011;5616;42.692;23.312;2022-09-24T02:03:07;6.23;;;5.40;;
11123;SDS011;5616;42.692;23.312;2022-09-24T02:05:39;6.03;;;5.30;;
11123;SDS011;5616;42.692;23.312;2022-09-24T02:08:10;7.07;;;5.57;;
11123;SDS011;5616;42.692;23.312;2022-09-24T02:10:45;7.07;;;5.57;;
11123;SDS011;5616;42.692;23.312;2022-09-24T02:13:16;8.63;;;5.30;;
11123;SDS011;5616;42.692;23.312;2022-09-24T02:15:50;6.93;;;5.83;;
11123;SDS011;5616;42.692;23.312;2022-09-24T02:18:22;7.23;;;5.60;;
11123;SDS011;5616;42.692;23.312;2022-09-24T02:20:59;6.63;;;5.90;;
11123;SDS011;5616;42.692;23.312;2022-09-24T02:23:29;6.57;;;5.73;;
11123;SDS011;5616;42.692;23.312;2022-09-24T02:26:02;9.67;;;6.27;;
11123;SDS011;5616;42.692;23.312;2022-09-24T02:28:30;6.57;;;5.97;;
11123;SDS011;5616;42.692;23.312;2022-09-24T02:31:01;8.90;;;6.03;;
11123;SDS011;5616;42.692;23.312;2022-09-24T02:33:32;8.57;;;6.30;;
11123;SDS011;5616;42.692;23.312;2022-09-24T02:36:21;6.70;;;5.83;;
11123;SDS011;5616;42.692;23.312;2022-09-24T02:38:49;8.17;;;5.50;;
11123;SDS011;5616;42.692;23.312;2022-09-24T02:41:16;7.60;;;5.90;;
11123;SDS011;5616;42.692;23.312;2022-09-24T02:43:44;6.97;;;6.13;;
11123;SDS011;5616;42.692;23.312;2022-09-24T02:46:13;9.00;;;6.03;;
11123;SDS011;5616;42.692;23.312;2022-09-24T02:48:39;6.67;;;5.87;;
11123;SDS011;5616;42.692;23.312;2022-09-24T02:51:06;6.50;;;5.87;;
11123;SDS011;5616;42.692;23.312;2022-09-24T02:53:33;6.13;;;5.30;;
11123;SDS011;5616;42.692;23.312;2022-09-24T02:56:00;6.00;;;5.40;;
11123;SDS011;5616;42.692;23.312;2022-09-24T02:58:28;9.50;;;5.53;;
11123;SDS011;5616;42.692;23.312;2022-09-24T03:00:56;6.67;;;5.60;;
11123;SDS011;5616;42.692;23.312;2022-09-24T03:03:24;9.50;;;5.40;;
11123;SDS011;5616;42.692;23.312;2022-09-24T03:05:51;5.60;;;5.00;;
11123;SDS011;5616;42.692;23.312;2022-09-24T03:08:19;6.73;;;5.63;;
11123;SDS011;5616;42.692;23.312;2022-09-24T03:10:46;7.13;;;5.37;;
11123;SDS011;5616;42.692;23.312;2022-09-24T03:13:13;5.53;;;4.93;;
11123;SDS011;5616;42.692;23.312;2022-09-24T03:15:42;5.87;;;5.20;;
11123;SDS011;5616;42.692;23.312;2022-09-24T03:18:09;6.17;;;5.10;;
11123;SDS011;5616;42.692;23.312;2022-09-24T03:20:37;5.97;;;4.97;;
11123;SDS011;5616;42.692;23.312;2022-09-24T03:23:04;7.23;;;4.97;;
11123;SDS011;5616;42.692;23.312;2022-09-24T03:25:31;6.30;;;5.33;;
11123;SDS011;5616;42.692;23.312;2022-09-24T03:27:58;7.53;;;5.40;;
11123;SDS011;5616;42.692;23.312;2022-09-24T03:30:25;5.93;;;5.07;;
11123;SDS011;5616;42.692;23.312;2022-09-24T03:33:09;9.77;;;5.40;;
11123;SDS011;5616;42.692;23.312;2022-09-24T03:35:37;5.90;;;5.30;;
11123;SDS011;5616;42.692;23.312;2022-09-24T03:38:04;6.07;;;5.00;;
11123;SDS011;5616;42.692;23.312;2022-09-24T03:40:31;8.33;;;5.50;;
11123;SDS011;5616;42.692;23.312;2022-09-24T03:42:58;8.00;;;5.40;;
11123;SDS011;5616;42.692;23.312;2022-09-24T03:45:25;9.23;;;5.50;;
11123;SDS011;5616;42.692;23.312;2022-09-24T03:47:51;6.03;;;5.40;;
11123;SDS011;5616;42.692;23.312;2022-09-24T03:50:19;7.33;;;5.30;;
11123;SDS011;5616;42.692;23.312;2022-09-24T03:52:47;6.43;;;5.60;;
11123;SDS011;5616;42.692;23.312;2022-09-24T03:55:14;7.57;;;6.13;;
11123;SDS011;5616;42.692;23.312;2022-09-24T03:57:41;8.10;;;6.00;;
11123;SDS011;5616;42.692;23.312;2022-09-24T04:00:08;7.75;;;6.90;;
11123;SDS011;5616;42.692;23.312;2022-09-24T04:02:36;7.13;;;6.10;;
11123;SDS011;5616;42.692;23.312;2022-09-24T04:05:05;9.20;;;6.70;;
11123;SDS011;5616;42.692;23.312;2022-09-24T04:07:32;6.53;;;5.67;;
11123;SDS011;5616;42.692;23.312;2022-09-24T04:10:01;7.20;;;6.30;;
11123;SDS011;5616;42.692;23.312;2022-09-24T04:12:28;6.87;;;6.17;;
11123;SDS011;5616;42.692;23.312;2022-09-24T04:14:55;8.07;;;6.33;;
11123;SDS011;5616;42.692;23.312;2022-09-24T04:17:22;9.70;;;6.27;;
11123;SDS011;5616;42.692;23.312;2022-09-24T04:19:52;7.57;;;5.90;;
11123;SDS011;5616;42.692;23.312;2022-09-24T04:22:19;6.73;;;5.43;;
11123;SDS011;5616;42.692;23.312;2022-09-24T04:24:46;6.83;;;5.80;;
11123;SDS011;5616;42.692;23.312;2022-09-24T04:27:14;9.57;;;6.20;;
11123;SDS011;5616;42.692;23.312;2022-09-24T04:29:41;7.97;;;6.20;;
11123;SDS011;5616;42.692;23.312;2022-09-24T04:32:08;7.17;;;5.90;;
11123;SDS011;5616;42.692;23.312;2022-09-24T04:34:35;6.37;;;5.73;;
11123;SDS011;5616;42.692;23.312;2022-09-24T04:37:01;7.37;;;6.27;;
11123;SDS011;5616;42.692;23.312;2022-09-24T04:39:30;8.87;;;6.17;;
11123;SDS011;5616;42.692;23.312;2022-09-24T04:41:56;7.40;;;6.23;;
11123;SDS011;5616;42.692;23.312;2022-09-24T04:44:25;9.17;;;6.60;;
11123;SDS011;5616;42.692;23.312;2022-09-24T04:46:52;7.97;;;6.00;;
11123;SDS011;5616;42.692;23.312;2022-09-24T04:49:24;7.37;;;6.20;;
11123;SDS011;5616;42.692;23.312;2022-09-24T04:51:52;7.17;;;6.17;;
11123;SDS011;5616;42.692;23.312;2022-09-24T04:54:18;8.40;;;5.87;;
11123;SDS011;5616;42.692;23.312;2022-09-24T04:56:46;9.10;;;6.37;;
11123;SDS011;5616;42.692;23.312;2022-09-24T04:59:13;8.53;;;6.40;;
11123;SDS011;5616;42.692;23.312;2022-09-24T05:01:41;8.03;;;6.23;;
11123;SDS011;5616;42.692;23.312;2022-09-24T05:04:08;8.07;;;6.17;;
11123;SDS011;5616;42.692;23.312;2022-09-24T05:06:34;6.73;;;5.93;;
11123;SDS011;5616;42.692;23.312;2022-09-24T05:09:01;6.83;;;5.80;;
11123;SDS011;5616;42.692;23.312;2022-09-24T05:11:28;10.80;;;6.70;;
11123;SDS011;5616;42.692;23.312;2022-09-24T05:13:55;8.53;;;6.70;;
11123;SDS011;5616;42.692;23.312;2022-09-24T05:16:22;10.47;;;6.67;;
11123;SDS011;5616;42.692;23.312;2022-09-24T05:18:50;9.70;;;7.33;;
11123;SDS011;5616;42.692;23.312;2022-09-24T05:21:17;19.20;;;7.50;;
11123;SDS011;5616;42.692;23.312;2022-09-24T05:23:44;9.20;;;6.70;;
11123;SDS011;5616;42.692;23.312;2022-09-24T05:26:11;10.03;;;7.13;;
11123;SDS011;5616;42.692;23.312;2022-09-24T05:28:55;10.23;;;6.93;;
11123;SDS011;5616;42.692;23.312;2022-09-24T05:31:21;10.40;;;7.57;;
11123;SDS011;5616;42.692;23.312;2022-09-24T05:33:48;9.57;;;6.87;;
11123;SDS011;5616;42.692;23.312;2022-09-24T05:36:16;17.10;;;9.73;;
11123;SDS011;5616;42.692;23.312;2022-09-24T05:38:43;13.20;;;9.00;;
11123;SDS011;5616;42.692;23.312;2022-09-24T05:41:10;13.83;;;8.07;;
11123;SDS011;5616;42.692;23.312;2022-09-24T05:43:37;10.87;;;7.63;;
11123;SDS011;5616;42.692;23.312;2022-09-24T05:46:04;9.23;;;7.63;;
11123;SDS011;5616;42.692;23.312;2022-09-24T05:48:32;11.67;;;7.90;;
11123;SDS011;5616;42.692;23.312;2022-09-24T05:50:59;15.13;;;8.17;;
11123;SDS011;5616;42.692;23.312;2022-09-24T05:53:27;11.87;;;7.63;;
11123;SDS011;5616;42.692;23.312;2022-09-24T05:55:54;8.73;;;7.20;;
11123;SDS011;5616;42.692;23.312;2022-09-24T05:58:21;10.63;;;7.63;;
11123;SDS011;5616;42.692;23.312;2022-09-24T06:00:49;10.03;;;7.83;;
11123;SDS011;5616;42.692;23.312;2022-09-24T06:03:16;10.83;;;7.43;;
11123;SDS011;5616;42.692;23.312;2022-09-24T06:05:44;11.03;;;8.00;;
11123;SDS011;5616;42.692;23.312;2022-09-24T06:08:13;14.17;;;8.10;;
11123;SDS011;5616;42.692;23.312;2022-09-24T06:10:42;12.30;;;8.30;;
11123;SDS011;5616;42.692;23.312;2022-09-24T06:13:11;10.90;;;7.93;;
11123;SDS011;5616;42.692;23.312;2022-09-24T06:15:38;8.87;;;7.33;;
11123;SDS011;5616;42.692;23.312;2022-09-24T06:18:06;28.37;;;12.73;;
11123;SDS011;5616;42.692;23.312;2022-09-24T06:20:33;14.43;;;9.07;;
11123;SDS011;5616;42.692;23.312;2022-09-24T06:23:00;11.77;;;8.90;;
11123;SDS011;5616;42.692;23.312;2022-09-24T06:25:27;15.37;;;8.80;;
11123;SDS011;5616;42.692;23.312;2022-09-24T06:27:57;10.10;;;8.57;;
11123;SDS011;5616;42.692;23.312;2022-09-24T06:30:25;9.23;;;7.93;;
11123;SDS011;5616;42.692;23.312;2022-09-24T06:32:53;12.83;;;8.80;;
11123;SDS011;5616;42.692;23.312;2022-09-24T06:35:20;11.67;;;8.77;;
11123;SDS011;5616;42.692;23.312;2022-09-24T06:37:47;11.77;;;8.53;;
11123;SDS011;5616;42.692;23.312;2022-09-24T06:40:14;13.43;;;10.17;;
11123;SDS011;5616;42.692;23.312;2022-09-24T06:42:41;10.50;;;8.37;;
11123;SDS011;5616;42.692;23.312;2022-09-24T06:45:10;11.13;;;8.00;;
11123;SDS011;5616;42.692;23.312;2022-09-24T06:47:38;16.63;;;9.00;;
11123;SDS011;5616;42.692;23.312;2022-09-24T06:50:05;12.40;;;8.77;;
11123;SDS011;5616;42.692;23.312;2022-09-24T06:52:33;13.33;;;8.40;;
11123;SDS011;5616;42.692;23.312;2022-09-24T06:54:59;11.03;;;7.90;;
11123;SDS011;5616;42.692;23.312;2022-09-24T06:57:26;10.97;;;8.53;;
11123;SDS011;5616;42.692;23.312;2022-09-24T06:59:53;12.33;;;8.20;;
11123;SDS011;5616;42.692;23.312;2022-09-24T07:02:21;7.90;;;7.10;;
11123;SDS011;5616;42.692;23.312;2022-09-24T07:04:48;9.50;;;6.90;;
11123;SDS011;5616;42.692;23.312;2022-09-24T07:07:15;8.93;;;6.83;;
11123;SDS011;5616;42.692;23.312;2022-09-24T07:09:54;6.70;;;5.97;;
11123;SDS011;5616;42.692;23.312;2022-09-24T07:12:21;8.80;;;6.37;;
11123;SDS011;5616;42.692;23.312;2022-09-24T07:14:48;10.07;;;6.60;;
11123;SDS011;5616;42.692;23.312;2022-09-24T07:17:15;9.33;;;5.90;;
11123;SDS011;5616;42.692;23.312;2022-09-24T07:19:43;8.27;;;6.47;;
11123;SDS011;5616;42.692;23.312;2022-09-24T07:22:10;8.03;;;6.83;;
11123;SDS011;5616;42.692;23.312;2022-09-24T07:24:37;8.73;;;6.87;;
11123;SDS011;5616;42.692;23.312;2022-09-24T07:27:04;11.07;;;6.77;;
11123;SDS011;5616;42.692;23.312;2022-09-24T07:29:31;8.07;;;7.10;;
11123;SDS011;5616;42.692;23.312;2022-09-24T07:31:58;9.57;;;7.27;;
11123;SDS011;5616;42.692;23.312;2022-09-24T07:34:25;10.17;;;6.73;;
11123;SDS011;5616;42.692;23.312;2022-09-24T07:36:54;7.43;;;6.40;;
11123;SDS011;5616;42.692;23.312;2022-09-24T07:39:21;9.97;;;6.90;;
11123;SDS011;5616;42.692;23.312;2022-09-24T07:41:48;8.73;;;7.00;;
11123;SDS011;5616;42.692;23.312;2022-09-24T07:44:16;12.87;;;8.40;;
11123;SDS011;5616;42.692;23.312;2022-09-24T07:46:45;12.37;;;7.23;;
11123;SDS011;5616;42.692;23.312;2022-09-24T07:49:13;8.03;;;7.23;;
11123;SDS011;5616;42.692;23.312;2022-09-24T07:51:39;11.80;;;6.73;;
11123;SDS011;5616;42.692;23.312;2022-09-24T07:54:08;9.43;;;6.70;;
11123;SDS011;5616;42.692;23.312;2022-09-24T07:56:35;8.10;;;6.17;;
11123;SDS011;5616;42.692;23.312;2022-09-24T07:59:03;7.80;;;6.10;;
11123;SDS011;5616;42.692;23.312;2022-09-24T08:01:30;11.70;;;7.40;;
11123;SDS011;5616;42.692;23.312;2022-09-24T08:03:58;12.57;;;7.80;;
11123;SDS011;5616;42.692;23.312;2022-09-24T08:06:25;8.67;;;6.73;;
11123;SDS011;5616;42.692;23.312;2022-09-24T08:08:52;7.93;;;6.40;;
11123;SDS011;5616;42.692;23.312;2022-09-24T08:11:22;7.30;;;6.47;;
11123;SDS011;5616;42.692;23.312;2022-09-24T08:13:49;9.03;;;6.63;;
11123;SDS011;5616;42.692;23.312;2022-09-24T08:16:16;8.00;;;6.47;;
11123;SDS011;5616;42.692;23.312;2022-09-24T08:18:45;13.70;;;8.40;;
11123;SDS011;5616;42.692;23.312;2022-09-24T08:21:12;8.20;;;6.10;;
11123;SDS011;5616;42.692;23.312;2022-09-24T08:23:39;9.37;;;5.97;;
11123;SDS011;5616;42.692;23.312;2022-09-24T08:26:07;22.70;;;12.23;;
11123;SDS011;5616;42.692;23.312;2022-09-24T08:28:36;9.43;;;7.90;;
11123;SDS011;5616;42.692;23.312;2022-09-24T08:31:05;22.30;;;13.13;;
11123;SDS011;5616;42.692;23.312;2022-09-24T08:33:33;15.77;;;8.40;;
11123;SDS011;5616;42.692;23.312;2022-09-24T08:36:01;12.33;;;7.30;;
11123;SDS011;5616;42.692;23.312;2022-09-24T08:38:29;9.80;;;6.37;;
11123;SDS011;5616;42.692;23.312;2022-09-24T08:40:58;9.13;;;6.40;;
11123;SDS011;5616;42.692;23.312;2022-09-24T08:43:35;9.97;;;6.57;;
11123;SDS011;5616;42.692;23.312;2022-09-24T08:46:12;7.97;;;6.27;;
11123;SDS011;5616;42.692;23.312;2022-09-24T08:49:01;8.37;;;5.97;;
11123;SDS011;5616;42.692;23.312;2022-09-24T08:51:34;10.43;;;6.57;;
11123;SDS011;5616;42.692;23.312;2022-09-24T08:54:07;7.87;;;6.57;;
11123;SDS011;5616;42.692;23.312;2022-09-24T08:56:38;9.43;;;6.47;;
11123;SDS011;5616;42.692;23.312;2022-09-24T08:59:13;11.67;;;6.47;;
11123;SDS011;5616;42.692;23.312;2022-09-24T09:01:52;7.83;;;6.13;;
11123;SDS011;5616;42.692;23.312;2022-09-24T09:04:31;9.40;;;6.70;;
11123;SDS011;5616;42.692;23.312;2022-09-24T09:07:07;8.60;;;6.40;;
11123;SDS011;5616;42.692;23.312;2022-09-24T09:09:41;9.03;;;6.57;;
11123;SDS011;5616;42.692;23.312;2022-09-24T09:12:12;8.83;;;6.47;;
11123;SDS011;5616;42.692;23.312;2022-09-24T09:14:47;9.83;;;7.20;;
11123;SDS011;5616;42.692;23.312;2022-09-24T09:17:25;7.80;;;6.40;;
11123;SDS011;5616;42.692;23.312;2022-09-24T09:19:57;12.50;;;6.03;;
11123;SDS011;5616;42.692;23.312;2022-09-24T09:22:28;9.23;;;6.60;;
11123;SDS011;5616;42.692;23.312;2022-09-24T09:24:58;10.63;;;6.57;;
11123;SDS011;5616;42.692;23.312;2022-09-24T09:27:29;11.63;;;6.77;;
11123;SDS011;5616;42.692;23.312;2022-09-24T09:29:57;8.83;;;5.93;;
11123;SDS011;5616;42.692;23.312;2022-09-24T09:32:35;10.37;;;6.47;;
11123;SDS011;5616;42.692;23.312;2022-09-24T09:35:12;10.43;;;6.13;;
11123;SDS011;5616;42.692;23.312;2022-09-24T09:37:46;9.47;;;5.73;;
11123;SDS011;5616;42.692;23.312;2022-09-24T09:40:24;7.77;;;5.20;;
11123;SDS011;5616;42.692;23.312;2022-09-24T09:42:58;6.00;;;5.13;;
11123;SDS011;5616;42.692;23.312;2022-09-24T09:45:30;6.30;;;5.50;;
11123;SDS011;5616;42.692;23.312;2022-09-24T09:48:03;5.13;;;4.27;;
11123;SDS011;5616;42.692;23.312;2022-09-24T09:50:33;7.17;;;4.17;;
11123;SDS011;5616;42.692;23.312;2022-09-24T09:53:05;7.53;;;4.50;;
11123;SDS011;5616;42.692;23.312;2022-09-24T09:55:43;7.80;;;4.30;;
11123;SDS011;5616;42.692;23.312;2022-09-24T09:58:18;5.60;;;4.50;;
11123;SDS011;5616;42.692;23.312;2022-09-24T10:00:49;5.20;;;4.17;;
11123;SDS011;5616;42.692;23.312;2022-09-24T10:03:19;6.47;;;4.37;;
11123;SDS011;5616;42.692;23.312;2022-09-24T10:05:51;8.87;;;4.77;;
11123;SDS011;5616;42.692;23.312;2022-09-24T10:08:20;7.50;;;4.30;;
11123;SDS011;5616;42.692;23.312;2022-09-24T10:10:51;5.40;;;3.53;;
11123;SDS011;5616;42.692;23.312;2022-09-24T10:13:19;8.93;;;4.40;;
11123;SDS011;5616;42.692;23.312;2022-09-24T10:15:51;5.70;;;3.50;;
11123;SDS011;5616;42.692;23.312;2022-09-24T10:18:23;4.90;;;3.50;;
11123;SDS011;5616;42.692;23.312;2022-09-24T10:20:55;7.33;;;3.07;;
11123;SDS011;5616;42.692;23.312;2022-09-24T10:23:23;7.80;;;3.87;;
11123;SDS011;5616;42.692;23.312;2022-09-24T10:25:58;5.20;;;3.53;;
11123;SDS011;5616;42.692;23.312;2022-09-24T10:28:27;8.93;;;5.00;;
11123;SDS011;5616;42.692;23.312;2022-09-24T10:31:15;5.57;;;4.50;;
11123;SDS011;5616;42.692;23.312;2022-09-24T10:33:45;10.43;;;5.10;;
11123;SDS011;5616;42.692;23.312;2022-09-24T10:36:14;4.50;;;3.33;;
11123;SDS011;5616;42.692;23.312;2022-09-24T10:38:44;3.33;;;2.67;;
11123;SDS011;5616;42.692;23.312;2022-09-24T10:41:23;3.90;;;2.60;;
11123;SDS011;5616;42.692;23.312;2022-09-24T10:43:52;2.43;;;2.23;;
11123;SDS011;5616;42.692;23.312;2022-09-24T10:49:17;2.63;;;2.00;;
11123;SDS011;5616;42.692;23.312;2022-09-24T10:51:58;2.23;;;2.00;;
11123;SDS011;5616;42.692;23.312;2022-09-24T10:54:38;3.50;;;1.90;;
11123;SDS011;5616;42.692;23.312;2022-09-24T10:57:19;2.77;;;1.83;;
11123;SDS011;5616;42.692;23.312;2022-09-24T10:59:56;2.03;;;1.83;;
11123;SDS011;5616;42.692;23.312;2022-09-24T11:05:34;2.30;;;2.10;;
11123;SDS011;5616;42.692;23.312;2022-09-24T11:08:10;4.07;;;2.40;;
11123;SDS011;5616;42.692;23.312;2022-09-24T11:10:49;3.43;;;2.50;;
11123;SDS011;5616;42.692;23.312;2022-09-24T11:13:30;3.27;;;2.00;;
11123;SDS011;5616;42.692;23.312;2022-09-24T11:16:14;4.03;;;1.90;;
11123;SDS011;5616;42.692;23.312;2022-09-24T11:19:05;3.67;;;2.30;;
11123;SDS011;5616;42.692;23.312;2022-09-24T11:21:46;4.30;;;2.03;;
11123;SDS011;5616;42.692;23.312;2022-09-24T11:24:35;2.20;;;1.90;;
11123;SDS011;5616;42.692;23.312;2022-09-24T11:27:21;5.13;;;2.30;;
11123;SDS011;5616;42.692;23.312;2022-09-24T11:30:06;1.93;;;1.80;;
11123;SDS011;5616;42.692;23.312;2022-09-24T11:32:40;3.60;;;1.80;;
11123;SDS011;5616;42.692;23.312;2022-09-24T11:35:25;3.73;;;2.13;;
11123;SDS011;5616;42.692;23.312;2022-09-24T11:38:02;2.73;;;2.07;;
11123;SDS011;5616;42.692;23.312;2022-09-24T11:40:38;2.10;;;1.90;;
11123;SDS011;5616;42.692;23.312;2022-09-24T11:43:27;2.20;;;1.90;;
11123;SDS011;5616;42.692;23.312;2022-09-24T11:46:12;3.07;;;2.00;;
11123;SDS011;5616;42.692;23.312;2022-09-24T11:49:01;3.77;;;2.33;;
11123;SDS011;5616;42.692;23.312;2022-09-24T11:51:49;2.57;;;2.27;;
11123;SDS011;5616;42.692;23.312;2022-09-24T11:54:23;2.07;;;1.83;;
11123;SDS011;5616;42.692;23.312;2022-09-24T11:56:56;2.10;;;1.90;;
11123;SDS011;5616;42.692;23.312;2022-09-24T11:59:33;3.23;;;1.90;;
11123;SDS011;5616;42.692;23.312;2022-09-24T12:02:10;3.23;;;1.80;;
11123;SDS011;5616;42.692;23.312;2022-09-24T12:04:51;4.03;;;1.90;;
11123;SDS011;5616;42.692;23.312;2022-09-24T12:07:25;2.20;;;2.00;;
11123;SDS011;5616;42.692;23.312;2022-09-24T12:09:58;2.00;;;1.80;;
11123;SDS011;5616;42.692;23.312;2022-09-24T12:12:30;2.20;;;2.00;;
11123;SDS011;5616;42.692;23.312;2022-09-24T12:15:03;2.90;;;2.00;;
11123;SDS011;5616;42.692;23.312;2022-09-24T12:17:36;2.97;;;1.87;;
11123;SDS011;5616;42.692;23.312;2022-09-24T12:20:13;2.70;;;2.03;;
11123;SDS011;5616;42.692;23.312;2022-09-24T12:22:46;2.67;;;1.87;;
11123;SDS011;5616;42.692;23.312;2022-09-24T12:25:15;3.37;;;2.27;;
11123;SDS011;5616;42.692;23.312;2022-09-24T12:27:42;1.97;;;1.87;;
11123;SDS011;5616;42.692;23.312;2022-09-24T12:30:20;2.50;;;2.17;;
11123;SDS011;5616;42.692;23.312;2022-09-24T12:33:12;3.42;;;1.90;;
11123;SDS011;5616;42.692;23.312;2022-09-24T12:35:54;4.53;;;1.90;;
11123;SDS011;5616;42.692;23.312;2022-09-24T12:38:31;2.10;;;1.90;;
11123;SDS011;5616;42.692;23.312;2022-09-24T12:41:08;3.10;;;2.20;;
11123;SDS011;5616;42.692;23.312;2022-09-24T12:43:48;2.83;;;2.33;;
11123;SDS011;5616;42.692;23.312;2022-09-24T12:46:20;3.60;;;2.13;;
11123;SDS011;5616;42.692;23.312;2022-09-24T12:48:50;2.03;;;1.90;;
11123;SDS011;5616;42.692;23.312;2022-09-24T12:51:20;3.13;;;2.10;;
11123;SDS011;5616;42.692;23.312;2022-09-24T12:53:56;2.07;;;1.70;;
11123;SDS011;5616;42.692;23.312;2022-09-24T12:56:26;4.33;;;2.33;;
11123;SDS011;5616;42.692;23.312;2022-09-24T12:58:55;4.90;;;1.87;;
11123;SDS011;5616;42.692;23.312;2022-09-24T13:01:25;2.00;;;1.90;;
11123;SDS011;5616;42.692;23.312;2022-09-24T13:04:01;2.00;;;1.80;;
11123;SDS011;5616;42.692;23.312;2022-09-24T13:06:30;2.53;;;1.90;;
11123;SDS011;5616;42.692;23.312;2022-09-24T13:09:00;3.10;;;2.07;;
11123;SDS011;5616;42.692;23.312;2022-09-24T13:11:29;3.07;;;1.70;;
11123;SDS011;5616;42.692;23.312;2022-09-24T13:14:06;3.07;;;1.80;;
11123;SDS011;5616;42.692;23.312;2022-09-24T13:16:44;2.80;;;1.97;;
11123;SDS011;5616;42.692;23.312;2022-09-24T13:19:21;1.80;;;1.70;;
11123;SDS011;5616;42.692;23.312;2022-09-24T13:21:59;2.23;;;1.77;;
11123;SDS011;5616;42.692;23.312;2022-09-24T13:24:31;2.87;;;1.80;;
11123;SDS011;5616;42.692;23.312;2022-09-24T13:27:08;1.73;;;1.63;;
11123;SDS011;5616;42.692;23.312;2022-09-24T13:29:46;3.30;;;1.90;;
11123;SDS011;5616;42.692;23.312;2022-09-24T13:32:18;2.17;;;1.97;;
11123;SDS011;5616;42.692;23.312;2022-09-24T13:34:47;2.70;;;1.77;;
11123;SDS011;5616;42.692;23.312;2022-09-24T13:37:17;2.10;;;1.90;;
11123;SDS011;5616;42.692;23.312;2022-09-24T13:39:51;3.93;;;2.00;;
11123;SDS011;5616;42.692;23.312;2022-09-24T13:42:26;3.67;;;1.97;;
11123;SDS011;5616;42.692;23.312;2022-09-24T13:44:58;3.53;;;2.30;;
11123;SDS011;5616;42.692;23.312;2022-09-24T13:47:28;2.40;;;1.97;;
11123;SDS011;5616;42.692;23.312;2022-09-24T13:50:02;3.03;;;2.20;;
11123;SDS011;5616;42.692;23.312;2022-09-24T13:52:34;1.80;;;1.70;;
11123;SDS011;5616;42.692;23.312;2022-09-24T13:55:09;2.37;;;2.17;;
11123;SDS011;5616;42.692;23.312;2022-09-24T13:57:42;2.50;;;1.83;;
11123;SDS011;5616;42.692;23.312;2022-09-24T14:00:15;3.10;;;1.93;;
11123;SDS011;5616;42.692;23.312;2022-09-24T14:02:50;1.77;;;1.67;;
11123;SDS011;5616;42.692;23.312;2022-09-24T14:05:20;6.70;;;1.93;;
11123;SDS011;5616;42.692;23.312;2022-09-24T14:10:36;3.07;;;2.03;;
11123;SDS011;5616;42.692;23.312;2022-09-24T14:13:15;2.10;;;1.90;;
11123;SDS011;5616;42.692;23.312;2022-09-24T14:15:52;3.03;;;2.20;;
11123;SDS011;5616;42.692;23.312;2022-09-24T14:18:20;3.50;;;2.10;;
11123;SDS011;5616;42.692;23.312;2022-09-24T14:20:49;2.53;;;2.20;;
11123;SDS011;5616;42.692;23.312;2022-09-24T14:23:22;5.47;;;2.30;;
11123;SDS011;5616;42.692;23.312;2022-09-24T14:25:54;2.30;;;2.00;;
11123;SDS011;5616;42.692;23.312;2022-09-24T14:28:23;2.13;;;1.80;;
11123;SDS011;5616;42.692;23.312;2022-09-24T14:30:51;2.97;;;1.93;;
11123;SDS011;5616;42.692;23.312;2022-09-24T14:33:21;2.40;;;1.77;;
11123;SDS011;5616;42.692;23.312;2022-09-24T14:35:50;2.50;;;2.27;;
11123;SDS011;5616;42.692;23.312;2022-09-24T14:38:20;4.80;;;2.17;;
11123;SDS011;5616;42.692;23.312;2022-09-24T14:40:50;2.30;;;2.10;;
11123;SDS011;5616;42.692;23.312;2022-09-24T14:43:22;3.30;;;2.17;;
11123;SDS011;5616;42.692;23.312;2022-09-24T14:45:59;2.53;;;2.10;;
11123;SDS011;5616;42.692;23.312;2022-09-24T14:48:29;3.53;;;2.30;;
11123;SDS011;5616;42.692;23.312;2022-09-24T14:50:57;2.20;;;2.00;;
11123;SDS011;5616;42.692;23.312;2022-09-24T14:53:25;2.03;;;1.90;;
11123;SDS011;5616;42.692;23.312;2022-09-24T14:55:54;3.50;;;2.20;;
11123;SDS011;5616;42.692;23.312;2022-09-24T14:58:31;2.20;;;2.00;;
11123;SDS011;5616;42.692;23.312;2022-09-24T15:01:01;3.70;;;2.20;;
11123;SDS011;5616;42.692;23.312;2022-09-24T15:03:33;2.37;;;2.17;;
11123;SDS011;5616;42.692;23.312;2022-09-24T15:06:05;2.30;;;2.10;;
11123;SDS011;5616;42.692;23.312;2022-09-24T15:08:40;3.60;;;2.40;;
11123;SDS011;5616;42.692;23.312;2022-09-24T15:11:13;6.93;;;2.50;;
11123;SDS011;5616;42.692;23.312;2022-09-24T15:13:43;3.17;;;2.40;;
11123;SDS011;5616;42.692;23.312;2022-09-24T15:16:16;4.07;;;2.47;;
11123;SDS011;5616;42.692;23.312;2022-09-24T15:18:48;3.87;;;2.53;;